createdAt,value
2023-05-10T00:00:10.664Z,6.22
2023-05-10T00:05:16.516Z,7.18
2023-05-10T00:10:19.348Z,5.43
2023-05-10T00:15:22.214Z,5.15
2023-05-10T00:20:24.978Z,6.15
2023-05-10T00:25:27.631Z,6.90
2023-05-10T00:30:30.408Z,6.65
2023-05-10T00:35:33.313Z,6.38
2023-05-10T00:40:38.069Z,5.97
2023-05-10T00:45:45.995Z,5.80
2023-05-10T00:50:49.090Z,5.88
2023-05-10T00:55:52.269Z,5.82
2023-05-10T01:00:58.230Z,5.30
2023-05-10T01:06:01.021Z,5.85
2023-05-10T01:11:04.026Z,7.00
2023-05-10T01:16:07.921Z,5.97
2023-05-10T01:21:28.927Z,6.30
2023-05-10T01:26:35.156Z,4.13
2023-05-10T01:31:58.852Z,6.28
2023-05-10T01:37:11.943Z,5.78
2023-05-10T01:42:29.985Z,5.72
2023-05-10T01:47:39.949Z,6.13
2023-05-10T01:52:45.865Z,6.75
2023-05-10T01:57:54.824Z,5.90
2023-05-10T02:02:58.480Z,5.43
2023-05-10T02:08:02.684Z,5.40
2023-05-10T02:13:08.475Z,5.05
2023-05-10T02:18:12.920Z,4.15
2023-05-10T02:23:18.492Z,4.85
2023-05-10T02:28:23.604Z,5.57
2023-05-10T02:33:28.143Z,5.68
2023-05-10T02:38:32.452Z,5.40
2023-05-10T02:43:36.712Z,5.18
2023-05-10T02:48:39.454Z,5.65
2023-05-10T02:53:44.910Z,5.97
2023-05-10T02:58:47.840Z,6.55
2023-05-10T03:03:50.655Z,6.03
2023-05-10T03:08:53.411Z,6.03
2023-05-10T03:14:11.126Z,5.70
2023-05-10T03:19:29.488Z,6.13
2023-05-10T03:24:35.384Z,5.60
2023-05-10T03:29:40.269Z,5.70
2023-05-10T03:34:46.825Z,4.95
2023-05-10T03:39:49.483Z,5.03
2023-05-10T03:44:52.301Z,4.82
2023-05-10T03:49:55.063Z,4.57
2023-05-10T03:54:58.740Z,4.70
2023-05-10T04:00:01.612Z,4.47
2023-05-10T04:05:09.281Z,5.07
2023-05-10T04:10:12.690Z,4.63
2023-05-10T04:15:15.481Z,4.38
2023-05-10T04:20:18.545Z,3.85
2023-05-10T04:25:21.340Z,4.18
2023-05-10T04:30:23.995Z,3.80
2023-05-10T04:35:27.300Z,4.15
2023-05-10T04:40:30.097Z,3.30
2023-05-10T04:45:32.769Z,3.30
2023-05-10T04:50:35.540Z,3.50
2023-05-10T04:55:38.279Z,3.35
2023-05-10T05:00:41.175Z,3.90
2023-05-10T05:05:45.036Z,3.13
2023-05-10T05:10:51.257Z,3.75
2023-05-10T05:15:54.605Z,3.30
2023-05-10T05:20:57.217Z,3.90
2023-05-10T05:26:00.162Z,3.20
2023-05-10T05:31:02.827Z,3.28
2023-05-10T05:36:07.025Z,3.40
2023-05-10T05:41:09.901Z,3.60
2023-05-10T05:46:12.589Z,3.65
2023-05-10T05:51:15.310Z,4.20
2023-05-10T05:56:25.058Z,3.92
2023-05-10T06:01:27.661Z,3.50
2023-05-10T06:06:30.469Z,2.78
2023-05-10T06:11:36.027Z,3.25
2023-05-10T06:16:38.718Z,3.05
2023-05-10T06:21:41.318Z,3.40
2023-05-10T06:26:44.233Z,3.05
2023-05-10T06:31:47.520Z,2.67
2023-05-10T06:36:50.177Z,3.33
2023-05-10T06:41:53.231Z,3.25
2023-05-10T06:46:56.895Z,2.53
2023-05-10T06:51:59.581Z,2.72
2023-05-10T06:57:05.790Z,2.80
2023-05-10T07:02:11.674Z,2.38
2023-05-10T07:07:15.559Z,2.60
2023-05-10T07:12:18.597Z,2.83
2023-05-10T07:17:21.718Z,3.30
2023-05-10T07:22:24.351Z,2.30
2023-05-10T07:27:27.072Z,2.78
2023-05-10T07:32:29.842Z,2.50
2023-05-10T07:37:32.630Z,2.45
2023-05-10T07:42:35.338Z,2.40
2023-05-10T07:47:37.991Z,2.28
2023-05-10T07:52:40.710Z,2.30
2023-05-10T07:57:43.751Z,1.95
2023-05-10T08:02:46.620Z,2.00
2023-05-10T08:07:49.482Z,1.80
2023-05-10T08:12:52.469Z,1.85
2023-05-10T08:17:55.662Z,1.90
2023-05-10T08:22:58.392Z,1.80
2023-05-10T08:28:01.099Z,1.77
2023-05-10T08:33:03.836Z,2.20
2023-05-10T08:38:06.546Z,2.22
2023-05-10T08:43:12.228Z,1.52
2023-05-10T08:48:15.927Z,2.13
2023-05-10T08:53:20.170Z,2.95
2023-05-10T08:58:23.037Z,1.65
2023-05-10T09:03:25.799Z,1.95
2023-05-10T09:08:28.804Z,2.85
2023-05-10T09:13:32.382Z,1.50
2023-05-10T09:18:35.064Z,1.20
2023-05-10T09:23:37.894Z,1.40
2023-05-10T09:29:01.123Z,1.70
2023-05-10T09:34:04.032Z,1.38
2023-05-10T09:39:06.760Z,1.45
2023-05-10T09:44:09.441Z,1.73
2023-05-10T09:49:15.910Z,1.40
2023-05-10T09:54:19.068Z,1.50
2023-05-10T09:59:21.729Z,1.95
2023-05-10T10:04:24.620Z,1.50
2023-05-10T10:09:27.982Z,1.65
2023-05-10T10:14:31.369Z,2.08
2023-05-10T10:19:38.070Z,2.20
2023-05-10T10:24:41.891Z,1.83
2023-05-10T10:30:14.916Z,2.13
2023-05-10T10:35:17.958Z,2.00
2023-05-10T10:40:29.039Z,2.10
2023-05-10T10:45:31.713Z,1.90
2023-05-10T10:50:45.494Z,1.70
2023-05-10T10:55:49.325Z,2.05
2023-05-10T11:01:11.426Z,2.00
2023-05-10T11:06:14.343Z,1.92
2023-05-10T11:11:17.075Z,2.20
2023-05-10T11:16:21.795Z,1.88
2023-05-10T11:21:24.914Z,2.38
2023-05-10T11:26:32.797Z,1.85
2023-05-10T11:31:36.476Z,1.95
2023-05-10T11:36:39.420Z,2.00
2023-05-10T11:41:43.464Z,2.00
2023-05-10T11:46:46.177Z,1.80
2023-05-10T11:51:49.110Z,1.58
2023-05-10T11:56:51.744Z,1.45
2023-05-10T12:01:54.594Z,1.95
2023-05-10T12:06:57.478Z,2.50
2023-05-10T12:12:00.120Z,1.90
2023-05-10T12:17:02.844Z,1.92
2023-05-10T12:22:08.429Z,2.00
2023-05-10T12:27:11.232Z,2.15
2023-05-10T12:32:13.867Z,1.60
2023-05-10T12:37:16.639Z,1.58
2023-05-10T12:42:19.251Z,1.83
2023-05-10T12:47:21.911Z,2.15
2023-05-10T12:52:25.901Z,1.80
2023-05-10T12:57:28.981Z,1.80
2023-05-10T13:02:31.698Z,1.70
2023-05-10T13:07:34.330Z,1.70
2023-05-10T13:12:37.272Z,2.20
2023-05-10T13:17:41.903Z,1.58
2023-05-10T13:22:45.925Z,1.90
2023-05-10T13:27:48.970Z,2.05
2023-05-10T13:32:51.939Z,2.55
2023-05-10T13:37:57.901Z,1.80
2023-05-10T13:43:03.277Z,2.13
2023-05-10T13:48:06.301Z,1.73
2023-05-10T13:53:08.978Z,2.00
2023-05-10T13:58:11.825Z,2.38
2023-05-10T14:03:14.522Z,2.10
2023-05-10T14:08:17.376Z,18.85
2023-05-10T14:13:19.971Z,2.95
2023-05-10T14:18:22.886Z,1.80
2023-05-10T14:23:26.013Z,1.83
2023-05-10T14:28:28.925Z,2.05
2023-05-10T14:33:31.636Z,1.70
2023-05-10T14:38:34.279Z,1.40
2023-05-10T14:43:37.783Z,2.10
2023-05-10T14:48:40.863Z,1.70
2023-05-10T14:53:43.980Z,2.13
2023-05-10T14:58:46.607Z,2.25
2023-05-10T15:03:49.442Z,2.17
2023-05-10T15:08:52.802Z,2.03
2023-05-10T15:13:55.690Z,1.98
2023-05-10T15:18:58.478Z,1.90
2023-05-10T15:24:01.522Z,1.85
2023-05-10T15:29:04.309Z,2.63
2023-05-10T15:34:07.318Z,1.85
2023-05-10T15:39:13.175Z,2.13
2023-05-10T15:44:15.896Z,4.65
2023-05-10T15:49:18.641Z,2.03
2023-05-10T15:54:21.463Z,2.30
2023-05-10T15:59:24.050Z,2.30
2023-05-10T16:04:27.254Z,2.28
2023-05-10T16:09:29.957Z,2.25
2023-05-10T16:14:32.640Z,2.15
2023-05-10T16:19:35.356Z,2.15
2023-05-10T16:24:38.035Z,2.60
2023-05-10T16:29:40.912Z,3.67
2023-05-10T16:34:43.614Z,3.30
2023-05-10T16:39:46.192Z,3.13
2023-05-10T16:44:48.833Z,3.20
2023-05-10T16:49:51.502Z,2.78
2023-05-10T16:54:57.057Z,3.40
2023-05-10T16:59:59.894Z,4.55
2023-05-10T17:05:02.873Z,4.70
2023-05-10T17:10:06.714Z,5.35
2023-05-10T17:15:10.172Z,6.90
2023-05-10T17:20:14.003Z,11.95
2023-05-10T17:25:16.969Z,18.85
2023-05-10T17:30:26.183Z,23.98
2023-05-10T17:35:31.504Z,10.35
2023-05-10T17:40:34.279Z,12.13
2023-05-10T17:45:37.160Z,10.18
2023-05-10T17:50:43.223Z,10.13
2023-05-10T17:55:46.071Z,6.13
2023-05-10T18:00:48.908Z,6.40
2023-05-10T18:05:51.912Z,10.70
2023-05-10T18:10:55.248Z,9.88
2023-05-10T18:15:57.901Z,10.60
2023-05-10T18:21:00.937Z,9.85
2023-05-10T18:26:03.730Z,9.57
2023-05-10T18:31:06.441Z,9.73
2023-05-10T18:36:09.145Z,10.55
2023-05-10T18:41:14.601Z,10.57
2023-05-10T18:46:17.347Z,9.23
2023-05-10T18:51:22.287Z,11.43
2023-05-10T18:56:25.070Z,8.80
2023-05-10T19:01:27.865Z,9.90
2023-05-10T19:06:31.449Z,7.90
2023-05-10T19:11:34.678Z,7.32
2023-05-10T19:16:37.881Z,6.57
2023-05-10T19:21:41.052Z,8.35
2023-05-10T19:26:43.760Z,7.03
2023-05-10T19:31:46.646Z,10.63
2023-05-10T19:36:49.519Z,9.18
2023-05-10T19:41:52.378Z,7.60
2023-05-10T19:46:55.483Z,7.82
2023-05-10T19:51:58.199Z,7.03
2023-05-10T19:57:00.962Z,6.45
2023-05-10T20:02:03.922Z,6.13
2023-05-10T20:07:06.650Z,6.82
2023-05-10T20:12:09.354Z,7.28
2023-05-10T20:17:12.104Z,5.70
2023-05-10T20:22:14.837Z,6.35
2023-05-10T20:27:17.790Z,5.32
2023-05-10T20:32:20.414Z,5.47
2023-05-10T20:37:23.755Z,5.00
2023-05-10T20:42:26.696Z,8.05
2023-05-10T20:47:29.857Z,6.90
2023-05-10T20:52:32.772Z,6.43
2023-05-10T20:57:36.660Z,7.28
2023-05-10T21:02:41.869Z,5.60
2023-05-10T21:07:44.632Z,5.57
2023-05-10T21:12:47.372Z,5.97
2023-05-10T21:17:50.135Z,5.68
2023-05-10T21:22:52.952Z,6.15
2023-05-10T21:27:55.572Z,5.22
2023-05-10T21:32:59.990Z,5.63
2023-05-10T21:38:02.767Z,5.75
2023-05-10T21:43:06.178Z,5.40
2023-05-10T21:48:08.896Z,5.25
2023-05-10T21:53:11.966Z,4.88
2023-05-10T21:58:14.615Z,5.32
2023-05-10T22:03:18.226Z,6.10
2023-05-10T22:08:21.069Z,5.80
2023-05-10T22:13:23.697Z,6.03
2023-05-10T22:18:26.417Z,5.75
2023-05-10T22:23:29.133Z,5.20
2023-05-10T22:28:32.039Z,5.70
2023-05-10T22:33:34.707Z,6.45
2023-05-10T22:38:37.707Z,5.65
2023-05-10T22:43:40.305Z,4.60
2023-05-10T22:48:43.849Z,4.65
2023-05-10T22:53:46.569Z,4.65
2023-05-10T22:58:50.469Z,4.75
2023-05-10T23:03:53.110Z,4.70
2023-05-10T23:08:55.824Z,4.90
2023-05-10T23:13:58.822Z,4.70
2023-05-10T23:19:01.488Z,5.18
2023-05-10T23:24:04.629Z,4.75
2023-05-10T23:29:07.375Z,5.03
2023-05-10T23:34:10.435Z,4.78
2023-05-10T23:39:13.598Z,4.68
2023-05-10T23:44:16.766Z,5.22
2023-05-10T23:49:19.635Z,3.90
2023-05-10T23:54:23.012Z,4.85
2023-05-10T23:59:25.753Z,5.32
